Siloam, Texas
Current Conditions -  °F | °C
As of 12:55 PM on Tuesday 27 Jan 2015 (Local Time) from KOSA Reporting Station
Clear Clear  
Wind Chill: 74°   Ceiling: Unl
Heat Index: 74°   Visibility: 10mi
Dew Point: 34°   Wind: 0mph
Humidity: 23%   Direction: NA
Pressure: 30.15"   Gusts: NA
Location:  33.4703°N, 94.6281°W
Report Text: KOSA 271855Z AUTO 00000KT 10SM CLR 23/01 A3015 RMK AO1 T02340010
Loading
Personal Weather Stations






























Interactive Weather Map New forecast layout! Learn more

10-Day Weather Forecast

Advertisements
Track Severe Weather on mobile